Time;durP1;ratioP1;P1;durP2;ratioP2;P2;SDS_P1;SDS_P2;PMS_P1;PMS_P2;Temp;Humidity;BMP_temperature;BMP_pressure;BME280_temperature;BME280_humidity;BME280_pressure;Samples;Min_cycle;Max_cycle;Signal;HPM_P1;HPM_P2
2022/02/27 00:00:42;;;;;;;1.17;0.50;;;;;;;;;;4994813;28;20053;-70
2022/02/27 00:03:11;;;;;;;2.33;0.93;;;;;;;;;;4996163;28;20057;-73
2022/02/27 00:05:39;;;;;;;2.03;0.88;;;;;;;;;;4995906;28;20054;-70
2022/02/27 00:08:09;;;;;;;1.42;0.55;;;;;;;;;;4995760;28;20042;-69
2022/02/27 00:10:36;;;;;;;1.95;0.75;;;;;;;;;;4994809;28;20399;-71
2022/02/27 00:13:04;;;;;;;2.03;0.38;;;;;;;;;;4995839;28;20041;-71
2022/02/27 00:15:31;;;;;;;2.63;1.00;;;;;;;;;;4995852;28;20042;-72
2022/02/27 00:17:59;;;;;;;3.20;0.70;;;;;;;;;;4994415;28;20073;-72
2022/02/27 00:20:26;;;;;;;1.35;0.60;;;;;;;;;;4994191;28;20434;-72
2022/02/27 00:22:56;;;;;;;3.55;0.70;;;;;;;;;;4994298;28;20055;-74
2022/02/27 00:25:24;;;;;;;2.15;0.60;;;;;;;;;;4994184;28;20069;-72
2022/02/27 00:27:53;;;;;;;4.65;1.00;;;;;;;;;;4995645;28;20038;-75
2022/02/27 00:30:21;;;;;;;2.70;0.68;;;;;;;;;;4994054;28;20046;-70
2022/02/27 00:32:48;;;;;;;2.42;0.93;;;;;;;;;;4977776;28;20042;-71
2022/02/27 00:35:17;;;;;;;3.28;0.75;;;;;;;;;;4993508;28;20058;-72
2022/02/27 00:37:45;;;;;;;1.92;0.82;;;;;;;;;;4993224;28;20082;-74
2022/02/27 00:40:13;;;;;;;2.88;0.68;;;;;;;;;;4977802;28;20137;-71
2022/02/27 00:42:41;;;;;;;1.30;0.68;;;;;;;;;;4993988;28;20053;-71
2022/02/27 00:45:08;;;;;;;1.13;0.60;;;;;;;;;;4993355;28;20113;-72
2022/02/27 00:47:37;;;;;;;2.15;0.80;;;;;;;;;;4993681;28;20051;-70
2022/02/27 00:50:06;;;;;;;5.20;1.00;;;;;;;;;;4993974;28;20683;-71
2022/02/27 00:52:34;;;;;;;4.95;0.88;;;;;;;;;;4995287;28;20117;-72
2022/02/27 00:55:01;;;;;;;3.30;0.73;;;;;;;;;;4990779;28;20046;-70
2022/02/27 00:57:29;;;;;;;4.15;0.82;;;;;;;;;;4993831;28;20742;-72
2022/02/27 00:59:57;;;;;;;7.80;0.82;;;;;;;;;;4995210;28;20423;-72
2022/02/27 01:02:25;;;;;;;3.25;0.68;;;;;;;;;;4995230;28;20045;-71
2022/02/27 01:04:53;;;;;;;2.25;0.55;;;;;;;;;;4993001;28;20454;-70
2022/02/27 01:07:20;;;;;;;3.05;0.77;;;;;;;;;;4994278;28;20042;-71
2022/02/27 01:09:48;;;;;;;4.10;0.65;;;;;;;;;;4993367;28;20477;-74
2022/02/27 01:12:16;;;;;;;5.18;1.00;;;;;;;;;;4977417;28;20047;-72
2022/02/27 01:14:46;;;;;;;5.43;0.88;;;;;;;;;;4993537;28;20046;-72
2022/02/27 01:17:14;;;;;;;5.32;1.10;;;;;;;;;;4993373;28;20513;-70
2022/02/27 01:19:42;;;;;;;5.78;1.00;;;;;;;;;;4994522;28;20070;-71
2022/02/27 01:22:10;;;;;;;4.50;0.85;;;;;;;;;;4977478;28;20056;-70
2022/02/27 01:24:38;;;;;;;3.40;0.82;;;;;;;;;;4994552;28;20470;-71
2022/02/27 01:27:06;;;;;;;1.13;0.70;;;;;;;;;;4995400;28;20046;-71
2022/02/27 01:29:34;;;;;;;1.40;0.63;;;;;;;;;;4993321;28;20070;-73
2022/02/27 01:32:04;;;;;;;3.00;0.50;;;;;;;;;;4994032;28;20043;-71
2022/02/27 01:34:37;;;;;;;2.75;0.80;;;;;;;;;;4994767;28;20050;-74
2022/02/27 01:37:05;;;;;;;2.95;0.80;;;;;;;;;;4993563;28;20137;-73
2022/02/27 01:39:35;;;;;;;1.80;0.60;;;;;;;;;;4977627;28;20057;-71
2022/02/27 01:42:03;;;;;;;2.90;0.85;;;;;;;;;;4992819;28;20402;-74
2022/02/27 01:44:30;;;;;;;3.45;0.75;;;;;;;;;;4992824;28;20042;-71
2022/02/27 01:47:00;;;;;;;2.30;1.15;;;;;;;;;;4993828;28;20066;-70
2022/02/27 01:49:28;;;;;;;7.72;1.02;;;;;;;;;;4992858;28;20109;-71
2022/02/27 01:52:00;;;;;;;4.60;1.43;;;;;;;;;;4993621;28;20048;-74
2022/02/27 01:54:30;;;;;;;1.88;0.70;;;;;;;;;;4992800;28;20109;-71
2022/02/27 01:56:58;;;;;;;6.68;1.27;;;;;;;;;;4994000;28;20502;-73
2022/02/27 01:59:25;;;;;;;4.78;0.77;;;;;;;;;;4992944;28;20538;-71
2022/02/27 02:01:54;;;;;;;4.68;1.20;;;;;;;;;;4994508;28;20046;-71
2022/02/27 02:04:21;;;;;;;4.90;0.90;;;;;;;;;;4993106;28;20060;-71
2022/02/27 02:06:49;;;;;;;1.92;0.88;;;;;;;;;;4994025;28;20046;-71
2022/02/27 02:09:17;;;;;;;4.60;1.50;;;;;;;;;;4992664;28;20042;-71
2022/02/27 02:11:49;;;;;;;3.40;0.82;;;;;;;;;;4992885;28;20060;-73
2022/02/27 02:14:17;;;;;;;5.38;1.10;;;;;;;;;;4992836;28;20042;-71
2022/02/27 02:16:50;;;;;;;;;;;;;;;;;;4992224;28;20038;-71
2022/02/27 02:19:20;;;;;;;3.33;0.90;;;;;;;;;;4992330;28;20420;-73
2022/02/27 02:21:51;;;;;;;;;;;;;;;;;;4977584;28;20128;-71
2022/02/27 02:24:19;;;;;;;4.40;0.75;;;;;;;;;;4992459;28;20290;-71
2022/02/27 02:26:50;;;;;;;3.72;0.90;;;;;;;;;;4992629;28;20050;-71
2022/02/27 02:29:19;;;;;;;2.40;0.85;;;;;;;;;;4992612;28;20046;-71
2022/02/27 02:31:48;;;;;;;1.80;0.85;;;;;;;;;;4993914;28;20043;-74
2022/02/27 02:34:18;;;;;;;2.95;0.90;;;;;;;;;;4992648;28;20117;-71
2022/02/27 02:36:47;;;;;;;3.80;1.17;;;;;;;;;;4991857;28;20541;-74
2022/02/27 02:39:16;;;;;;;5.13;0.80;;;;;;;;;;4992073;28;20072;-71
2022/02/27 02:41:44;;;;;;;3.97;0.85;;;;;;;;;;4992415;28;20038;-72
2022/02/27 02:44:19;;;;;;;3.03;0.80;;;;;;;;;;4992023;28;20548;-71
2022/02/27 02:46:47;;;;;;;4.32;1.10;;;;;;;;;;4992295;28;20061;-73
2022/02/27 02:49:14;;;;;;;3.53;1.13;;;;;;;;;;4992096;28;20053;-71
2022/02/27 02:51:47;;;;;;;3.42;1.00;;;;;;;;;;4992286;28;20497;-74
2022/02/27 02:54:14;;;;;;;6.40;1.45;;;;;;;;;;4975732;28;20519;-71
2022/02/27 02:56:42;;;;;;;2.38;0.90;;;;;;;;;;4992868;28;20046;-71
2022/02/27 02:59:10;;;;;;;3.38;0.95;;;;;;;;;;4993403;28;20470;-70
2022/02/27 03:01:37;;;;;;;2.20;0.85;;;;;;;;;;4993207;28;20049;-70
2022/02/27 03:04:05;;;;;;;2.95;0.85;;;;;;;;;;4993250;28;20081;-70
2022/02/27 03:06:34;;;;;;;1.10;0.50;;;;;;;;;;4993262;28;20126;-74
2022/02/27 03:09:04;;;;;;;4.57;0.70;;;;;;;;;;4991601;28;20093;-74
2022/02/27 03:11:33;;;;;;;6.82;1.00;;;;;;;;;;4993727;28;20034;-70
2022/02/27 03:14:01;;;;;;;6.25;1.35;;;;;;;;;;4975825;28;20087;-70
2022/02/27 03:16:29;;;;;;;4.38;1.00;;;;;;;;;;4992995;28;20050;-70
2022/02/27 03:18:57;;;;;;;6.03;1.10;;;;;;;;;;4993087;28;20042;-74
2022/02/27 03:21:25;;;;;;;3.28;0.90;;;;;;;;;;4991499;28;20121;-72
2022/02/27 03:23:53;;;;;;;4.13;0.88;;;;;;;;;;4991281;28;20440;-70
2022/02/27 03:26:21;;;;;;;3.22;1.00;;;;;;;;;;4992604;28;20045;-74
2022/02/27 03:28:50;;;;;;;4.95;1.15;;;;;;;;;;4994214;28;20049;-73
2022/02/27 03:31:18;;;;;;;1.77;0.80;;;;;;;;;;4997159;28;20549;-70
2022/02/27 03:33:53;;;;;;;4.35;1.02;;;;;;;;;;4996792;28;20102;-72
2022/02/27 03:36:21;;;;;;;1.90;1.10;;;;;;;;;;4996472;28;20042;-72
2022/02/27 03:38:49;;;;;;;5.70;1.10;;;;;;;;;;4996863;28;20047;-73
2022/02/27 03:41:16;;;;;;;2.40;0.73;;;;;;;;;;4996920;28;20042;-72
2022/02/27 03:43:43;;;;;;;3.58;1.10;;;;;;;;;;4996549;28;20053;-74
2022/02/27 03:46:13;;;;;;;4.65;0.93;;;;;;;;;;4995768;28;20164;-70
2022/02/27 03:48:40;;;;;;;4.20;0.85;;;;;;;;;;4997123;28;20470;-70
2022/02/27 03:51:08;;;;;;;7.72;1.23;;;;;;;;;;4997028;28;20042;-74
2022/02/27 03:53:36;;;;;;;5.35;1.30;;;;;;;;;;4996477;28;20045;-74
2022/02/27 03:56:03;;;;;;;3.85;0.90;;;;;;;;;;4996299;28;20046;-71
2022/02/27 03:58:31;;;;;;;2.80;0.82;;;;;;;;;;4995402;28;20052;-73
2022/02/27 04:00:58;;;;;;;2.67;0.70;;;;;;;;;;4996517;28;20121;-70
2022/02/27 04:03:26;;;;;;;4.53;1.10;;;;;;;;;;5011560;28;20409;-72
2022/02/27 04:05:54;;;;;;;2.53;0.80;;;;;;;;;;4995318;28;20054;-72
2022/02/27 04:08:21;;;;;;;6.10;1.30;;;;;;;;;;4996133;28;20045;-74
2022/02/27 04:10:48;;;;;;;3.38;0.80;;;;;;;;;;5011750;28;20490;-70
2022/02/27 04:13:16;;;;;;;1.92;0.77;;;;;;;;;;5011540;28;20065;-71
2022/02/27 04:15:43;;;;;;;2.78;0.80;;;;;;;;;;4996269;28;20046;-74
2022/02/27 04:18:11;;;;;;;1.85;0.80;;;;;;;;;;4994960;28;20054;-72
2022/02/27 04:20:39;;;;;;;3.65;0.90;;;;;;;;;;4995968;28;20061;-70
2022/02/27 04:23:06;;;;;;;1.98;0.80;;;;;;;;;;4996131;28;20584;-70
2022/02/27 04:25:34;;;;;;;2.83;0.90;;;;;;;;;;4994738;28;20053;-72
2022/02/27 04:28:01;;;;;;;3.00;0.90;;;;;;;;;;4996186;28;20114;-70
2022/02/27 04:30:29;;;;;;;4.00;0.80;;;;;;;;;;4995524;28;20489;-73
2022/02/27 04:32:56;;;;;;;3.15;0.80;;;;;;;;;;4978252;28;20134;-74
2022/02/27 04:35:24;;;;;;;6.70;1.13;;;;;;;;;;4995625;28;20056;-74
2022/02/27 04:37:51;;;;;;;4.20;1.45;;;;;;;;;;4995890;28;20042;-71
2022/02/27 04:40:19;;;;;;;3.97;1.00;;;;;;;;;;4995515;28;20386;-74
2022/02/27 04:42:46;;;;;;;2.75;0.75;;;;;;;;;;4996012;28;20092;-74
2022/02/27 04:45:14;;;;;;;2.08;0.70;;;;;;;;;;4994562;28;20049;-71
2022/02/27 04:47:41;;;;;;;0.77;0.50;;;;;;;;;;4995919;28;20034;-71
2022/02/27 04:50:09;;;;;;;1.80;0.50;;;;;;;;;;4996202;28;20405;-73
2022/02/27 04:52:36;;;;;;;3.40;1.25;;;;;;;;;;4995471;28;20042;-74
2022/02/27 04:55:04;;;;;;;3.22;0.85;;;;;;;;;;5010397;28;20050;-71
2022/02/27 04:57:34;;;;;;;2.50;0.85;;;;;;;;;;4995173;28;20048;-73
2022/02/27 05:00:03;;;;;;;2.65;0.75;;;;;;;;;;4995546;28;20461;-71
2022/02/27 05:02:30;;;;;;;4.80;1.13;;;;;;;;;;4994364;28;20494;-71
2022/02/27 05:04:58;;;;;;;6.07;2.63;;;;;;;;;;4994241;28;20046;-71
2022/02/27 05:07:25;;;;;;;2.60;1.35;;;;;;;;;;4995344;28;20042;-71
2022/02/27 05:09:53;;;;;;;4.10;1.25;;;;;;;;;;4995214;28;20496;-71
2022/02/27 05:12:20;;;;;;;2.65;0.90;;;;;;;;;;4995147;28;20133;-71
2022/02/27 05:14:48;;;;;;;3.22;1.20;;;;;;;;;;4993869;28;20046;-71
2022/02/27 05:17:34;;;;;;;4.90;1.30;;;;;;;;;;4995344;28;20532;-74
2022/02/27 05:20:03;;;;;;;3.58;0.85;;;;;;;;;;4994963;28;20375;-74
2022/02/27 05:22:31;;;;;;;2.35;0.85;;;;;;;;;;4994917;28;20402;-73
2022/02/27 05:24:59;;;;;;;4.70;1.27;;;;;;;;;;4995220;28;20049;-70
2022/02/27 05:27:26;;;;;;;3.30;1.10;;;;;;;;;;4993554;28;20039;-72
2022/02/27 05:29:54;;;;;;;2.70;1.20;;;;;;;;;;4995148;28;20048;-73
2022/02/27 05:32:21;;;;;;;4.38;1.20;;;;;;;;;;4994782;28;20405;-71
2022/02/27 05:34:49;;;;;;;1.80;0.70;;;;;;;;;;4994745;28;20577;-73
2022/02/27 05:37:20;;;;;;;2.33;0.70;;;;;;;;;;4994347;28;20125;-71
2022/02/27 05:39:48;;;;;;;4.07;1.05;;;;;;;;;;4995000;28;20113;-73
2022/02/27 05:42:16;;;;;;;4.05;1.15;;;;;;;;;;4993719;28;20419;-71
2022/02/27 05:44:43;;;;;;;5.70;1.27;;;;;;;;;;4993058;28;20413;-73
2022/02/27 05:47:11;;;;;;;2.70;0.90;;;;;;;;;;4994670;28;20390;-71
2022/02/27 05:49:38;;;;;;;3.20;0.90;;;;;;;;;;4994817;28;20070;-71
2022/02/27 05:52:06;;;;;;;3.67;0.88;;;;;;;;;;5009084;28;20038;-74
2022/02/27 05:54:34;;;;;;;1.77;0.82;;;;;;;;;;4994516;28;20049;-72
2022/02/27 05:57:01;;;;;;;2.65;0.70;;;;;;;;;;4994176;28;20046;-73
2022/02/27 05:59:29;;;;;;;2.55;0.70;;;;;;;;;;4994649;28;20061;-71
2022/02/27 06:01:56;;;;;;;1.23;0.70;;;;;;;;;;4994360;28;20047;-71
2022/02/27 06:04:24;;;;;;;0.70;0.50;;;;;;;;;;4994279;28;20101;-72
2022/02/27 06:06:55;;;;;;;1.98;0.95;;;;;;;;;;4994197;28;20411;-74
2022/02/27 06:09:22;;;;;;;1.92;0.73;;;;;;;;;;4994266;28;20398;-74
2022/02/27 06:11:50;;;;;;;1.23;0.88;;;;;;;;;;4994250;28;20101;-73
2022/02/27 06:14:18;;;;;;;2.33;0.93;;;;;;;;;;4993777;28;20035;-72
2022/02/27 06:16:45;;;;;;;3.70;0.80;;;;;;;;;;4993797;28;20409;-70
2022/02/27 06:19:13;;;;;;;4.93;1.13;;;;;;;;;;4993775;28;20060;-68
2022/02/27 06:21:40;;;;;;;1.85;0.77;;;;;;;;;;4993555;28;20053;-70
2022/02/27 06:24:08;;;;;;;1.25;0.68;;;;;;;;;;4993950;28;20085;-72
2022/02/27 06:26:35;;;;;;;1.65;1.33;;;;;;;;;;4993906;28;20338;-71
2022/02/27 06:29:03;;;;;;;1.58;1.08;;;;;;;;;;4993738;28;20050;-69
2022/02/27 06:31:31;;;;;;;2.20;0.90;;;;;;;;;;4993683;28;20035;-71
2022/02/27 06:33:58;;;;;;;2.08;0.73;;;;;;;;;;4993627;28;20070;-69
2022/02/27 06:36:26;;;;;;;2.13;0.70;;;;;;;;;;4991828;28;20477;-70
2022/02/27 06:38:53;;;;;;;1.27;0.70;;;;;;;;;;4992475;28;20046;-72
2022/02/27 06:41:21;;;;;;;2.65;1.10;;;;;;;;;;4993470;28;20046;-69
2022/02/27 06:43:48;;;;;;;3.42;1.10;;;;;;;;;;4993449;28;20039;-72
2022/02/27 06:46:21;;;;;;;3.83;1.58;;;;;;;;;;4993481;28;20141;-71
2022/02/27 06:48:49;;;;;;;5.53;2.90;;;;;;;;;;4993629;28;20050;-71
2022/02/27 06:51:17;;;;;;;2.88;1.80;;;;;;;;;;5008762;28;20441;-72
2022/02/27 06:53:45;;;;;;;4.72;2.72;;;;;;;;;;4992184;28;20042;-71
2022/02/27 06:56:12;;;;;;;2.35;1.27;;;;;;;;;;4993075;28;20524;-68
2022/02/27 06:58:40;;;;;;;3.00;2.20;;;;;;;;;;4993367;28;20121;-69
2022/02/27 07:01:10;;;;;;;2.17;1.00;;;;;;;;;;4993219;28;20066;-72
2022/02/27 07:03:38;;;;;;;2.47;2.10;;;;;;;;;;4993195;28;20108;-72
2022/02/27 07:06:06;;;;;;;2.65;1.40;;;;;;;;;;4993424;28;20069;-69
2022/02/27 07:08:34;;;;;;;4.45;2.40;;;;;;;;;;4993100;28;20066;-70
2022/02/27 07:11:02;;;;;;;4.07;2.78;;;;;;;;;;4992826;28;20065;-71
2022/02/27 07:13:31;;;;;;;3.00;2.00;;;;;;;;;;4991817;28;20051;-69
2022/02/27 07:15:58;;;;;;;3.28;2.20;;;;;;;;;;4993021;28;20037;-72
2022/02/27 07:18:27;;;;;;;3.15;2.33;;;;;;;;;;4991882;28;20137;-72
2022/02/27 07:20:55;;;;;;;4.50;2.58;;;;;;;;;;4988461;28;20042;-71
2022/02/27 07:23:22;;;;;;;8.45;2.42;;;;;;;;;;5094189;22;20061;-69
2022/02/27 07:25:50;;;;;;;2.50;1.58;;;;;;;;;;5012939;28;20046;-70
2022/02/27 07:28:20;;;;;;;3.50;1.55;;;;;;;;;;5012487;28;20045;-71
2022/02/27 07:30:49;;;;;;;2.40;1.10;;;;;;;;;;5012551;28;20564;-71
2022/02/27 07:33:16;;;;;;;2.10;1.02;;;;;;;;;;5011666;28;20238;-69
2022/02/27 07:35:45;;;;;;;3.33;1.67;;;;;;;;;;5011971;28;20053;-69
2022/02/27 07:38:13;;;;;;;1.50;1.20;;;;;;;;;;5013154;28;20375;-69
2022/02/27 07:40:41;;;;;;;1.48;1.10;;;;;;;;;;5012372;28;20478;-69
2022/02/27 07:43:08;;;;;;;1.90;1.13;;;;;;;;;;5012270;28;20124;-70
2022/02/27 07:45:36;;;;;;;2.80;1.00;;;;;;;;;;5011571;28;20109;-69
2022/02/27 07:48:07;;;;;;;1.70;1.30;;;;;;;;;;5011665;28;20069;-70
2022/02/27 07:50:36;;;;;;;1.65;1.10;;;;;;;;;;5013232;28;20129;-68
2022/02/27 07:53:07;;;;;;;4.35;2.03;;;;;;;;;;5012905;28;20393;-69
2022/02/27 07:55:34;;;;;;;1.50;1.20;;;;;;;;;;5012949;28;20049;-69
2022/02/27 07:58:04;;;;;;;2.58;1.52;;;;;;;;;;5012438;28;20486;-68
2022/02/27 08:00:32;;;;;;;3.17;1.50;;;;;;;;;;5011104;28;20720;-69
2022/02/27 08:03:00;;;;;;;3.80;1.98;;;;;;;;;;5012151;28;20042;-70
2022/02/27 08:05:29;;;;;;;1.58;1.48;;;;;;;;;;5012137;28;20049;-69
2022/02/27 08:07:59;;;;;;;2.67;1.13;;;;;;;;;;5011823;28;20049;-70
2022/02/27 08:10:30;;;;;;;4.15;2.22;;;;;;;;;;5012984;28;20179;-69
2022/02/27 08:12:58;;;;;;;2.08;0.85;;;;;;;;;;5011357;28;20042;-69
2022/02/27 08:15:26;;;;;;;4.65;1.92;;;;;;;;;;5013128;28;20099;-70
2022/02/27 08:17:56;;;;;;;3.80;1.05;;;;;;;;;;5015239;28;20038;-69
2022/02/27 08:20:23;;;;;;;3.40;1.42;;;;;;;;;;5015054;28;20100;-70
2022/02/27 08:22:51;;;;;;;1.45;1.30;;;;;;;;;;5015214;28;20076;-69
2022/02/27 08:25:19;;;;;;;5.38;2.50;;;;;;;;;;5015437;28;20050;-75
2022/02/27 08:27:50;;;;;;;3.30;0.88;;;;;;;;;;5013426;28;20037;-69
2022/02/27 08:30:17;;;;;;;3.22;1.50;;;;;;;;;;5014533;28;20090;-68
2022/02/27 08:32:50;;;;;;;4.28;1.50;;;;;;;;;;5014103;28;20061;-70
2022/02/27 08:35:18;;;;;;;3.30;2.15;;;;;;;;;;5014975;28;20136;-70
2022/02/27 08:37:49;;;;;;;1.85;0.77;;;;;;;;;;5015752;28;20128;-70
2022/02/27 08:40:17;;;;;;;2.30;1.40;;;;;;;;;;5015197;28;20042;-71
2022/02/27 08:42:45;;;;;;;1.90;1.63;;;;;;;;;;5015661;28;20052;-71
2022/02/27 08:45:12;;;;;;;3.30;1.60;;;;;;;;;;5014944;28;20155;-71
2022/02/27 08:47:41;;;;;;;4.30;2.50;;;;;;;;;;5014624;28;20042;-70
2022/02/27 08:50:16;;;;;;;2.85;2.00;;;;;;;;;;5015083;28;20060;-70
2022/02/27 08:52:44;;;;;;;2.08;1.65;;;;;;;;;;5015370;28;20511;-69
2022/02/27 08:55:17;;;;;;;2.05;1.30;;;;;;;;;;5015329;28;20117;-70
2022/02/27 08:57:46;;;;;;;2.80;0.90;;;;;;;;;;5014964;28;20068;-69
2022/02/27 09:00:16;;;;;;;1.83;0.85;;;;;;;;;;5015192;28;20077;-68
2022/02/27 09:02:45;;;;;;;6.43;1.05;;;;;;;;;;5014729;28;20498;-68
2022/02/27 09:05:14;;;;;;;2.58;1.35;;;;;;;;;;5014140;28;20041;-70
2022/02/27 09:07:49;;;;;;;1.98;1.10;;;;;;;;;;5015158;28;20100;-72
2022/02/27 09:10:16;;;;;;;2.17;0.95;;;;;;;;;;5014727;28;20140;-72
2022/02/27 09:12:48;;;;;;;8.65;3.20;;;;;;;;;;5015070;28;20046;-72
2022/02/27 09:15:18;;;;;;;2.60;1.58;;;;;;;;;;5015070;28;20042;-70
2022/02/27 09:17:50;;;;;;;7.22;3.42;;;;;;;;;;5015259;28;20053;-70
2022/02/27 09:20:18;;;;;;;3.60;1.48;;;;;;;;;;5014813;28;20069;-71
2022/02/27 09:22:46;;;;;;;5.43;3.13;;;;;;;;;;5015140;28;20504;-70
2022/02/27 09:25:15;;;;;;;5.40;2.08;;;;;;;;;;5015076;28;20496;-71
2022/02/27 09:28:05;;;;;;;5.68;3.15;;;;;;;;;;5013055;28;20485;-72
2022/02/27 09:30:32;;;;;;;4.97;3.17;;;;;;;;;;5014542;28;20044;-73
2022/02/27 09:33:00;;;;;;;3.47;2.03;;;;;;;;;;5014413;28;20038;-70
2022/02/27 09:35:28;;;;;;;2.47;1.17;;;;;;;;;;5014158;28;20071;-72
2022/02/27 09:38:00;;;;;;;2.47;1.50;;;;;;;;;;5014594;28;20062;-72
2022/02/27 09:40:31;;;;;;;4.18;1.85;;;;;;;;;;5014150;28;20405;-72
2022/02/27 09:42:59;;;;;;;3.95;2.50;;;;;;;;;;5014413;28;20489;-70
2022/02/27 09:45:28;;;;;;;1.98;1.17;;;;;;;;;;5014497;28;20050;-72
2022/02/27 09:47:57;;;;;;;3.50;2.63;;;;;;;;;;5014644;28;20077;-70
2022/02/27 09:50:25;;;;;;;3.90;1.35;;;;;;;;;;5014440;28;20041;-72
2022/02/27 09:52:53;;;;;;;1.27;0.88;;;;;;;;;;5014670;28;20073;-72
2022/02/27 09:55:22;;;;;;;1.00;0.90;;;;;;;;;;5014160;28;20505;-72
2022/02/27 09:57:49;;;;;;;1.48;0.85;;;;;;;;;;5014085;28;20049;-70
2022/02/27 10:00:19;;;;;;;2.75;1.63;;;;;;;;;;5014328;28;20038;-70
2022/02/27 10:03:03;;;;;;;4.30;2.03;;;;;;;;;;5013072;28;20168;-72
2022/02/27 10:05:32;;;;;;;1.77;1.00;;;;;;;;;;5014130;28;20049;-70
2022/02/27 10:08:02;;;;;;;14.68;1.90;;;;;;;;;;5014331;28;20116;-72
2022/02/27 10:10:33;;;;;;;1.88;1.40;;;;;;;;;;5014363;28;20041;-70
2022/02/27 10:13:06;;;;;;;2.92;1.20;;;;;;;;;;5010913;28;20125;-72
2022/02/27 10:15:35;;;;;;;2.33;1.23;;;;;;;;;;5014114;28;20048;-70
2022/02/27 10:18:16;;;;;;;4.55;1.65;;;;;;;;;;5014135;28;20049;-72
2022/02/27 10:20:45;;;;;;;6.10;1.58;;;;;;;;;;5013905;28;20472;-70
2022/02/27 10:23:25;;;;;;;2.75;1.40;;;;;;;;;;5013648;28;20054;-70
2022/02/27 10:25:53;;;;;;;1.80;1.27;;;;;;;;;;5014180;28;20117;-68
2022/02/27 10:28:20;;;;;;;6.40;1.40;;;;;;;;;;5013810;28;20061;-71
2022/02/27 10:30:51;;;;;;;2.35;1.33;;;;;;;;;;5013360;28;20050;-67
2022/02/27 10:33:22;;;;;;;1.50;1.05;;;;;;;;;;5013152;28;20120;-69
2022/02/27 10:35:54;;;;;;;2.25;1.08;;;;;;;;;;5013142;28;20466;-70
2022/02/27 10:38:45;;;;;;;2.83;1.10;;;;;;;;;;5012125;28;20418;-70
2022/02/27 10:41:21;;;;;;;5.10;1.15;;;;;;;;;;5013821;28;20459;-72
2022/02/27 10:43:49;;;;;;;3.20;1.00;;;;;;;;;;5014018;28;20046;-70
2022/02/27 10:46:19;;;;;;;1.25;1.00;;;;;;;;;;5013667;28;20461;-71
2022/02/27 10:48:50;;;;;;;2.38;1.35;;;;;;;;;;5012537;28;20038;-68
2022/02/27 10:51:18;;;;;;;4.15;1.27;;;;;;;;;;5012873;28;20382;-71
2022/02/27 10:53:48;;;;;;;1.38;1.00;;;;;;;;;;5012106;28;20050;-73
2022/02/27 10:56:18;;;;;;;2.67;1.00;;;;;;;;;;5012919;28;20038;-68
2022/02/27 10:58:48;;;;;;;4.60;1.10;;;;;;;;;;5011961;28;20136;-70
2022/02/27 11:01:20;;;;;;;3.50;1.58;;;;;;;;;;5013031;28;20041;-71
2022/02/27 11:03:48;;;;;;;2.22;1.50;;;;;;;;;;5015711;28;20431;-69
2022/02/27 11:06:19;;;;;;;2.88;1.52;;;;;;;;;;5006227;28;20069;-68
2022/02/27 11:08:47;;;;;;;2.15;1.13;;;;;;;;;;5012765;28;20042;-69
2022/02/27 11:11:18;;;;;;;3.22;1.30;;;;;;;;;;5012801;28;20042;-68
2022/02/27 11:13:49;;;;;;;3.38;1.10;;;;;;;;;;5012945;28;20073;-68
2022/02/27 11:16:17;;;;;;;5.03;1.50;;;;;;;;;;5011579;28;20159;-72
2022/02/27 11:18:45;;;;;;;4.95;1.25;;;;;;;;;;4997580;28;20141;-71
2022/02/27 11:21:15;;;;;;;3.30;1.58;;;;;;;;;;4993028;28;20050;-68
2022/02/27 11:23:44;;;;;;;2.15;1.00;;;;;;;;;;4993092;28;20050;-69
2022/02/27 11:26:14;;;;;;;4.82;1.38;;;;;;;;;;4993558;28;20125;-72
2022/02/27 11:28:43;;;;;;;2.10;1.27;;;;;;;;;;5011104;28;20493;-71
2022/02/27 11:31:13;;;;;;;2.08;1.15;;;;;;;;;;5011571;28;20058;-68
2022/02/27 11:33:42;;;;;;;2.30;1.20;;;;;;;;;;5012471;28;20046;-68
2022/02/27 11:36:23;;;;;;;1.45;1.00;;;;;;;;;;5012937;28;20433;-68
2022/02/27 11:39:02;;;;;;;2.35;1.27;;;;;;;;;;5013031;28;20046;-72
2022/02/27 11:41:45;;;;;;;4.03;1.52;;;;;;;;;;5013009;28;20362;-68
2022/02/27 11:44:14;;;;;;;1.63;0.73;;;;;;;;;;5012595;28;20160;-72
2022/02/27 11:46:43;;;;;;;3.85;1.38;;;;;;;;;;5012882;28;20046;-68
2022/02/27 11:49:20;;;;;;;2.13;1.00;;;;;;;;;;5012951;28;20557;-68
2022/02/27 11:52:09;;;;;;;1.98;1.40;;;;;;;;;;5016683;28;20042;-72
2022/02/27 11:54:44;;;;;;;2.90;1.70;;;;;;;;;;5016566;28;20037;-72
2022/02/27 11:57:19;;;;;;;1.48;0.98;;;;;;;;;;5015947;28;20129;-72
2022/02/27 11:59:50;;;;;;;2.38;1.38;;;;;;;;;;5016379;28;20489;-71
2022/02/27 12:02:40;;;;;;;3.35;1.17;;;;;;;;;;5013227;28;20065;-69
2022/02/27 12:05:09;;;;;;;2.78;1.45;;;;;;;;;;5014488;28;20046;-69
2022/02/27 12:07:59;;;;;;;6.45;1.50;;;;;;;;;;5015606;28;20501;-69
2022/02/27 12:10:38;;;;;;;2.30;1.30;;;;;;;;;;5013667;28;20092;-71
2022/02/27 12:13:25;;;;;;;4.38;1.67;;;;;;;;;;5012387;28;20044;-73
2022/02/27 12:16:13;;;;;;;1.65;1.23;;;;;;;;;;5014730;28;20117;-69
2022/02/27 12:18:57;;;;;;;2.00;1.10;;;;;;;;;;5015840;28;20058;-70
2022/02/27 12:21:39;;;;;;;2.58;1.60;;;;;;;;;;5015253;28;20081;-73
2022/02/27 12:24:13;;;;;;;3.97;1.58;;;;;;;;;;5015701;28;20054;-69
2022/02/27 12:26:47;;;;;;;1.30;1.20;;;;;;;;;;5014891;28;20041;-73
2022/02/27 12:29:36;;;;;;;3.78;1.42;;;;;;;;;;5010480;28;20132;-73
2022/02/27 12:32:06;;;;;;;2.17;1.30;;;;;;;;;;5015610;28;20041;-72
2022/02/27 12:34:37;;;;;;;0.95;0.80;;;;;;;;;;5015056;28;20048;-71
2022/02/27 12:37:06;;;;;;;1.40;0.77;;;;;;;;;;5012532;28;20155;-73
2022/02/27 12:39:36;;;;;;;1.08;0.63;;;;;;;;;;5013762;28;20037;-73
2022/02/27 12:42:05;;;;;;;2.30;1.20;;;;;;;;;;5015119;28;20042;-71
2022/02/27 12:44:34;;;;;;;0.95;0.90;;;;;;;;;;5004884;28;20034;-70
2022/02/27 12:47:11;;;;;;;1.10;0.60;;;;;;;;;;5007265;28;20042;-73
2022/02/27 12:52:30;;;;;;;0.50;0.50;;;;;;;;;;4996100;28;20121;-70
2022/02/27 12:54:57;;;;;;;0.50;0.30;;;;;;;;;;4995961;28;20039;-70
2022/02/27 12:57:27;;;;;;;0.57;0.57;;;;;;;;;;4996067;28;20133;-70
2022/02/27 12:59:55;;;;;;;2.63;1.33;;;;;;;;;;4995648;28;20086;-70
2022/02/27 13:02:26;;;;;;;4.75;0.80;;;;;;;;;;4995465;28;20102;-70
2022/02/27 13:05:04;;;;;;;0.40;0.40;;;;;;;;;;4995949;28;20049;-72
2022/02/27 13:07:31;;;;;;;0.52;0.50;;;;;;;;;;4995780;28;20093;-70
2022/02/27 13:10:00;;;;;;;0.93;0.70;;;;;;;;;;4995292;28;20379;-72
2022/02/27 13:12:30;;;;;;;1.70;0.82;;;;;;;;;;5010445;28;20053;-73
2022/02/27 13:14:59;;;;;;;1.67;0.90;;;;;;;;;;5008528;28;20057;-71
2022/02/27 13:17:29;;;;;;;2.20;1.00;;;;;;;;;;5014657;28;20034;-72
2022/02/27 13:20:00;;;;;;;2.45;0.82;;;;;;;;;;5011427;28;20053;-71
2022/02/27 13:22:34;;;;;;;0.60;0.60;;;;;;;;;;5009592;28;20081;-72
2022/02/27 13:25:14;;;;;;;1.23;1.10;;;;;;;;;;5013791;28;20041;-71
2022/02/27 13:27:48;;;;;;;2.63;0.60;;;;;;;;;;5013771;28;20088;-72
2022/02/27 13:30:23;;;;;;;3.90;1.20;;;;;;;;;;5013981;28;20042;-73
2022/02/27 13:32:52;;;;;;;0.65;0.40;;;;;;;;;;5011518;28;20049;-71
2022/02/27 13:35:24;;;;;;;1.25;0.50;;;;;;;;;;5013831;28;20322;-72
2022/02/27 13:37:52;;;;;;;1.05;0.80;;;;;;;;;;5011686;28;20038;-72
2022/02/27 13:40:24;;;;;;;2.15;0.65;;;;;;;;;;5013813;28;20052;-72
2022/02/27 13:42:55;;;;;;;1.38;0.68;;;;;;;;;;5011589;28;20088;-71
2022/02/27 13:45:25;;;;;;;1.50;0.50;;;;;;;;;;5012311;28;20121;-71
2022/02/27 13:47:59;;;;;;;1.98;0.90;;;;;;;;;;5012273;28;20045;-72
2022/02/27 13:50:28;;;;;;;1.58;0.68;;;;;;;;;;5013307;28;20045;-71
2022/02/27 13:53:08;;;;;;;0.65;0.50;;;;;;;;;;5013899;28;20404;-70
2022/02/27 13:55:38;;;;;;;0.85;0.70;;;;;;;;;;5012083;28;20117;-72
2022/02/27 13:58:12;;;;;;;1.88;0.50;;;;;;;;;;5013404;28;20061;-70
2022/02/27 14:00:57;;;;;;;0.90;0.63;;;;;;;;;;5012233;28;20136;-70
2022/02/27 14:03:32;;;;;;;1.00;0.70;;;;;;;;;;5009841;28;20121;-70
2022/02/27 14:06:01;;;;;;;0.73;0.73;;;;;;;;;;5013149;28;20088;-72
2022/02/27 14:08:29;;;;;;;3.53;0.73;;;;;;;;;;5013356;28;20520;-72
2022/02/27 14:11:14;;;;;;;1.00;0.90;;;;;;;;;;5013147;28;20030;-70
2022/02/27 14:13:52;;;;;;;0.80;0.65;;;;;;;;;;5011664;28;20076;-72
2022/02/27 14:16:26;;;;;;;1.33;0.60;;;;;;;;;;5012298;28;20057;-71
2022/02/27 14:18:58;;;;;;;1.55;0.60;;;;;;;;;;5011167;28;20100;-72
2022/02/27 14:21:25;;;;;;;1.65;0.60;;;;;;;;;;5012157;28;20049;-70
2022/02/27 14:23:59;;;;;;;0.68;0.60;;;;;;;;;;5012992;28;20056;-71
2022/02/27 14:26:28;;;;;;;0.75;0.50;;;;;;;;;;5012546;28;20064;-70
2022/02/27 14:29:00;;;;;;;0.98;0.63;;;;;;;;;;5011577;28;20041;-71
2022/02/27 14:31:37;;;;;;;2.15;0.70;;;;;;;;;;5010642;28;20100;-73
2022/02/27 14:34:09;;;;;;;1.25;0.73;;;;;;;;;;5011475;28;20042;-71
2022/02/27 14:36:36;;;;;;;1.55;0.90;;;;;;;;;;5012526;28;20046;-71
2022/02/27 14:39:08;;;;;;;1.67;0.93;;;;;;;;;;5011483;28;20037;-73
2022/02/27 14:41:36;;;;;;;2.22;0.88;;;;;;;;;;5012268;28;20409;-70
2022/02/27 14:44:04;;;;;;;2.40;1.13;;;;;;;;;;5012250;28;20134;-71
2022/02/27 14:46:32;;;;;;;1.20;1.10;;;;;;;;;;5009636;28;20153;-72
2022/02/27 14:49:04;;;;;;;1.83;1.08;;;;;;;;;;5010947;28;20101;-72
2022/02/27 14:51:33;;;;;;;3.05;1.27;;;;;;;;;;5010017;28;20432;-72
2022/02/27 14:54:01;;;;;;;2.30;1.13;;;;;;;;;;5012308;28;20034;-71
2022/02/27 14:56:30;;;;;;;5.90;1.60;;;;;;;;;;5011705;28;20038;-82
2022/02/27 14:59:00;;;;;;;3.08;1.67;;;;;;;;;;4993324;28;20049;-72
2022/02/27 15:01:29;;;;;;;4.20;1.83;;;;;;;;;;5008504;28;20046;-70